sensor_id;sensor_type;location;lat;lon;timestamp;temperature;humidity
37322;DHT22;23697;48.684;9.032;2023-10-08T06:55:51;11.90;76.20
37322;DHT22;23697;48.684;9.032;2023-10-08T07:44:26;15.10;64.20
37322;DHT22;23697;48.684;9.032;2023-10-08T07:47:48;15.30;64.00
37322;DHT22;23697;48.684;9.032;2023-10-08T07:50:14;15.50;62.60
37322;DHT22;23697;48.684;9.032;2023-10-08T07:52:41;15.60;64.80
37322;DHT22;23697;48.684;9.032;2023-10-08T07:56:03;15.70;64.90
37322;DHT22;23697;48.684;9.032;2023-10-08T08:21:57;16.20;61.50
37322;DHT22;23697;48.684;9.032;2023-10-08T08:25:11;16.40;60.70
37322;DHT22;23697;48.684;9.032;2023-10-08T08:28:10;16.60;60.20
37322;DHT22;23697;48.684;9.032;2023-10-08T08:30:42;17.10;60.30
37322;DHT22;23697;48.684;9.032;2023-10-08T08:48:45;18.80;56.70
37322;DHT22;23697;48.684;9.032;2023-10-08T08:51:27;19.10;55.30
37322;DHT22;23697;48.684;9.032;2023-10-08T08:54:18;19.10;53.60
37322;DHT22;23697;48.684;9.032;2023-10-08T13:01:50;26.00;39.40
37322;DHT22;23697;48.684;9.032;2023-10-08T13:04:19;26.10;40.60
37322;DHT22;23697;48.684;9.032;2023-10-08T13:06:51;26.10;37.50
37322;DHT22;23697;48.684;9.032;2023-10-08T13:09:22;26.00;39.10
37322;DHT22;23697;48.684;9.032;2023-10-08T13:11:49;26.10;38.20
37322;DHT22;23697;48.684;9.032;2023-10-08T13:14:15;26.10;38.30
37322;DHT22;23697;48.684;9.032;2023-10-08T13:16:42;26.20;37.80
37322;DHT22;23697;48.684;9.032;2023-10-08T13:19:11;26.20;36.60
37322;DHT22;23697;48.684;9.032;2023-10-08T13:21:38;26.10;35.80
37322;DHT22;23697;48.684;9.032;2023-10-08T13:24:04;26.20;36.70
37322;DHT22;23697;48.684;9.032;2023-10-08T13:26:34;26.20;36.90
37322;DHT22;23697;48.684;9.032;2023-10-08T13:29:03;26.20;35.70
37322;DHT22;23697;48.684;9.032;2023-10-08T13:31:30;26.30;36.30
37322;DHT22;23697;48.684;9.032;2023-10-08T13:34:01;26.30;37.60
37322;DHT22;23697;48.684;9.032;2023-10-08T13:36:34;26.40;36.30
37322;DHT22;23697;48.684;9.032;2023-10-08T13:39:03;26.40;36.50
37322;DHT22;23697;48.684;9.032;2023-10-08T13:41:34;26.30;38.20
37322;DHT22;23697;48.684;9.032;2023-10-08T13:44:00;26.30;38.70
37322;DHT22;23697;48.684;9.032;2023-10-08T13:46:30;26.40;35.80
37322;DHT22;23697;48.684;9.032;2023-10-08T13:49:01;26.40;38.20
37322;DHT22;23697;48.684;9.032;2023-10-08T13:51:31;26.50;37.60
37322;DHT22;23697;48.684;9.032;2023-10-08T13:54:01;26.30;34.90
37322;DHT22;23697;48.684;9.032;2023-10-08T13:56:32;26.30;31.60
37322;DHT22;23697;48.684;9.032;2023-10-08T13:58:59;26.10;31.70
37322;DHT22;23697;48.684;9.032;2023-10-08T14:01:37;26.10;32.20
37322;DHT22;23697;48.684;9.032;2023-10-08T14:04:06;26.20;32.60
37322;DHT22;23697;48.684;9.032;2023-10-08T14:06:33;26.20;34.80
37322;DHT22;23697;48.684;9.032;2023-10-08T14:09:01;26.20;33.40
37322;DHT22;23697;48.684;9.032;2023-10-08T14:11:32;26.20;32.70
37322;DHT22;23697;48.684;9.032;2023-10-08T14:13:59;26.20;32.80
37322;DHT22;23697;48.684;9.032;2023-10-08T14:16:28;26.20;32.70
37322;DHT22;23697;48.684;9.032;2023-10-08T14:18:57;26.20;32.50
37322;DHT22;23697;48.684;9.032;2023-10-08T14:21:25;26.10;32.10
37322;DHT22;23697;48.684;9.032;2023-10-08T14:23:55;26.10;33.90
37322;DHT22;23697;48.684;9.032;2023-10-08T14:26:29;26.10;33.30
37322;DHT22;23697;48.684;9.032;2023-10-08T14:29:01;26.10;32.30
37322;DHT22;23697;48.684;9.032;2023-10-08T14:31:33;26.00;32.40
37322;DHT22;23697;48.684;9.032;2023-10-08T14:34:04;26.10;32.70
37322;DHT22;23697;48.684;9.032;2023-10-08T14:36:44;26.00;33.70
37322;DHT22;23697;48.684;9.032;2023-10-08T14:39:28;25.90;33.40
37322;DHT22;23697;48.684;9.032;2023-10-08T14:42:14;25.80;34.00
37322;DHT22;23697;48.684;9.032;2023-10-08T14:44:58;25.80;33.90
37322;DHT22;23697;48.684;9.032;2023-10-08T14:47:25;25.70;33.50
37322;DHT22;23697;48.684;9.032;2023-10-08T14:49:51;25.70;34.40
37322;DHT22;23697;48.684;9.032;2023-10-08T14:52:18;25.70;33.90
37322;DHT22;23697;48.684;9.032;2023-10-08T14:54:45;25.60;34.20
37322;DHT22;23697;48.684;9.032;2023-10-08T14:57:11;25.40;34.10
37322;DHT22;23697;48.684;9.032;2023-10-08T15:02:35;24.80;36.70
37322;DHT22;23697;48.684;9.032;2023-10-08T15:05:04;24.70;37.20
37322;DHT22;23697;48.684;9.032;2023-10-08T15:07:47;24.60;38.20
37322;DHT22;23697;48.684;9.032;2023-10-08T15:10:16;24.50;37.70
37322;DHT22;23697;48.684;9.032;2023-10-08T15:12:45;24.40;37.80
37322;DHT22;23697;48.684;9.032;2023-10-08T15:15:20;24.10;38.60
37322;DHT22;23697;48.684;9.032;2023-10-08T15:17:55;24.10;38.30
37322;DHT22;23697;48.684;9.032;2023-10-08T15:20:37;24.00;38.10
37322;DHT22;23697;48.684;9.032;2023-10-08T15:23:08;23.80;39.10
37322;DHT22;23697;48.684;9.032;2023-10-08T15:25:38;23.70;39.30
37322;DHT22;23697;48.684;9.032;2023-10-08T15:28:05;23.60;39.30
37322;DHT22;23697;48.684;9.032;2023-10-08T15:30:35;23.40;40.60
37322;DHT22;23697;48.684;9.032;2023-10-08T15:33:04;23.20;41.20
37322;DHT22;23697;48.684;9.032;2023-10-08T15:35:43;23.10;42.00
37322;DHT22;23697;48.684;9.032;2023-10-08T15:38:11;23.10;42.10
37322;DHT22;23697;48.684;9.032;2023-10-08T15:40:38;23.10;42.90
37322;DHT22;23697;48.684;9.032;2023-10-08T15:43:07;23.10;42.80
37322;DHT22;23697;48.684;9.032;2023-10-08T15:45:37;23.10;43.70
37322;DHT22;23697;48.684;9.032;2023-10-08T15:48:06;23.00;43.90
37322;DHT22;23697;48.684;9.032;2023-10-08T15:50:33;23.00;42.90
37322;DHT22;23697;48.684;9.032;2023-10-08T15:53:05;23.00;43.60
37322;DHT22;23697;48.684;9.032;2023-10-08T15:59:06;22.80;43.30
37322;DHT22;23697;48.684;9.032;2023-10-08T16:02:16;22.70;44.10
37322;DHT22;23697;48.684;9.032;2023-10-08T16:08:07;22.60;44.50
37322;DHT22;23697;48.684;9.032;2023-10-08T16:10:33;22.40;46.60
37322;DHT22;23697;48.684;9.032;2023-10-08T16:13:00;22.30;47.90
37322;DHT22;23697;48.684;9.032;2023-10-08T16:15:27;22.10;45.70
37322;DHT22;23697;48.684;9.032;2023-10-08T16:17:53;22.00;48.50
37322;DHT22;23697;48.684;9.032;2023-10-08T16:20:21;21.80;47.90
37322;DHT22;23697;48.684;9.032;2023-10-08T16:22:50;21.70;48.30
37322;DHT22;23697;48.684;9.032;2023-10-08T16:25:19;21.50;48.40
37322;DHT22;23697;48.684;9.032;2023-10-08T16:27:47;21.30;48.80
37322;DHT22;23697;48.684;9.032;2023-10-08T16:30:15;21.10;49.90
37322;DHT22;23697;48.684;9.032;2023-10-08T16:32:42;20.90;51.90
37322;DHT22;23697;48.684;9.032;2023-10-08T16:35:09;20.70;52.60
37322;DHT22;23697;48.684;9.032;2023-10-08T16:37:36;20.60;53.10
37322;DHT22;23697;48.684;9.032;2023-10-08T16:40:03;20.30;52.80
37322;DHT22;23697;48.684;9.032;2023-10-08T16:42:32;20.20;53.20
37322;DHT22;23697;48.684;9.032;2023-10-08T16:45:00;20.10;53.60
37322;DHT22;23697;48.684;9.032;2023-10-08T16:47:27;19.90;55.20
